sensor_id;sensor_type;location;lat;lon;timestamp;P1;durP1;ratioP1;P2;durP2;ratioP2
64799;SDS011;51233;51.982;4.594;2023-07-31T00:01:00;22.77;;;7.10;;
64799;SDS011;51233;51.982;4.594;2023-07-31T00:04:00;24.20;;;7.38;;
64799;SDS011;51233;51.982;4.594;2023-07-31T00:07:00;23.23;;;7.00;;
64799;SDS011;51233;51.982;4.594;2023-07-31T00:10:00;21.40;;;6.97;;
64799;SDS011;51233;51.982;4.594;2023-07-31T00:13:00;19.77;;;6.80;;
64799;SDS011;51233;51.982;4.594;2023-07-31T00:16:01;20.23;;;5.78;;
64799;SDS011;51233;51.982;4.594;2023-07-31T00:19:01;23.07;;;7.60;;
64799;SDS011;51233;51.982;4.594;2023-07-31T00:22:01;22.35;;;6.78;;
64799;SDS011;51233;51.982;4.594;2023-07-31T00:25:01;17.50;;;5.17;;
64799;SDS011;51233;51.982;4.594;2023-07-31T00:28:02;20.83;;;6.23;;
64799;SDS011;51233;51.982;4.594;2023-07-31T00:31:02;19.73;;;6.53;;
64799;SDS011;51233;51.982;4.594;2023-07-31T00:34:03;27.17;;;8.35;;
64799;SDS011;51233;51.982;4.594;2023-07-31T00:37:03;18.07;;;7.20;;
64799;SDS011;51233;51.982;4.594;2023-07-31T00:40:04;18.37;;;5.87;;
64799;SDS011;51233;51.982;4.594;2023-07-31T00:43:04;22.37;;;7.03;;
64799;SDS011;51233;51.982;4.594;2023-07-31T00:46:04;21.40;;;8.00;;
64799;SDS011;51233;51.982;4.594;2023-07-31T00:49:05;17.20;;;6.70;;
64799;SDS011;51233;51.982;4.594;2023-07-31T00:52:05;16.67;;;6.70;;
64799;SDS011;51233;51.982;4.594;2023-07-31T00:55:06;16.73;;;4.73;;
64799;SDS011;51233;51.982;4.594;2023-07-31T00:58:09;25.07;;;8.00;;
64799;SDS011;51233;51.982;4.594;2023-07-31T01:01:09;21.55;;;7.05;;
64799;SDS011;51233;51.982;4.594;2023-07-31T01:04:09;18.13;;;7.43;;
64799;SDS011;51233;51.982;4.594;2023-07-31T01:10:11;10.87;;;4.87;;
64799;SDS011;51233;51.982;4.594;2023-07-31T01:13:15;6.75;;;3.55;;
64799;SDS011;51233;51.982;4.594;2023-07-31T01:16:17;9.07;;;4.07;;
64799;SDS011;51233;51.982;4.594;2023-07-31T01:19:18;8.80;;;3.42;;
64799;SDS011;51233;51.982;4.594;2023-07-31T01:25:41;17.27;;;5.40;;
64799;SDS011;51233;51.982;4.594;2023-07-31T01:31:48;17.38;;;6.03;;
64799;SDS011;51233;51.982;4.594;2023-07-31T01:34:52;14.80;;;5.75;;
64799;SDS011;51233;51.982;4.594;2023-07-31T01:37:53;14.57;;;5.13;;
64799;SDS011;51233;51.982;4.594;2023-07-31T01:40:56;17.83;;;6.20;;
64799;SDS011;51233;51.982;4.594;2023-07-31T01:43:57;14.93;;;5.53;;
64799;SDS011;51233;51.982;4.594;2023-07-31T01:46:57;24.20;;;8.17;;
64799;SDS011;51233;51.982;4.594;2023-07-31T01:50:03;21.73;;;6.88;;
64799;SDS011;51233;51.982;4.594;2023-07-31T01:53:03;13.33;;;4.27;;
64799;SDS011;51233;51.982;4.594;2023-07-31T01:56:03;18.93;;;6.27;;
64799;SDS011;51233;51.982;4.594;2023-07-31T01:59:03;24.00;;;8.20;;
64799;SDS011;51233;51.982;4.594;2023-07-31T02:02:04;27.03;;;7.33;;
64799;SDS011;51233;51.982;4.594;2023-07-31T02:05:04;22.77;;;5.60;;
64799;SDS011;51233;51.982;4.594;2023-07-31T02:08:05;21.10;;;7.23;;
64799;SDS011;51233;51.982;4.594;2023-07-31T02:11:05;21.67;;;6.23;;
64799;SDS011;51233;51.982;4.594;2023-07-31T02:14:05;29.07;;;8.10;;
64799;SDS011;51233;51.982;4.594;2023-07-31T02:17:06;24.50;;;7.10;;
64799;SDS011;51233;51.982;4.594;2023-07-31T02:20:06;23.00;;;6.23;;
64799;SDS011;51233;51.982;4.594;2023-07-31T02:23:07;24.53;;;8.23;;
64799;SDS011;51233;51.982;4.594;2023-07-31T02:26:08;16.90;;;5.90;;
64799;SDS011;51233;51.982;4.594;2023-07-31T02:29:08;23.27;;;7.50;;
64799;SDS011;51233;51.982;4.594;2023-07-31T02:32:09;25.60;;;7.93;;
64799;SDS011;51233;51.982;4.594;2023-07-31T02:35:09;24.30;;;7.40;;
64799;SDS011;51233;51.982;4.594;2023-07-31T02:38:09;22.10;;;6.73;;
64799;SDS011;51233;51.982;4.594;2023-07-31T02:41:10;21.37;;;6.27;;
64799;SDS011;51233;51.982;4.594;2023-07-31T02:44:10;17.60;;;5.43;;
64799;SDS011;51233;51.982;4.594;2023-07-31T02:47:14;17.95;;;5.25;;
64799;SDS011;51233;51.982;4.594;2023-07-31T02:50:14;23.80;;;5.88;;
64799;SDS011;51233;51.982;4.594;2023-07-31T02:53:14;23.00;;;5.55;;
64799;SDS011;51233;51.982;4.594;2023-07-31T02:56:15;19.47;;;5.73;;
64799;SDS011;51233;51.982;4.594;2023-07-31T02:59:15;18.87;;;6.37;;
64799;SDS011;51233;51.982;4.594;2023-07-31T03:02:15;20.33;;;6.07;;
64799;SDS011;51233;51.982;4.594;2023-07-31T03:05:15;22.10;;;6.95;;
64799;SDS011;51233;51.982;4.594;2023-07-31T03:08:16;19.27;;;5.90;;
64799;SDS011;51233;51.982;4.594;2023-07-31T03:11:16;21.70;;;6.77;;
64799;SDS011;51233;51.982;4.594;2023-07-31T03:14:19;19.63;;;6.47;;
64799;SDS011;51233;51.982;4.594;2023-07-31T03:17:19;24.13;;;6.40;;
64799;SDS011;51233;51.982;4.594;2023-07-31T03:20:19;19.20;;;4.73;;
64799;SDS011;51233;51.982;4.594;2023-07-31T03:23:20;21.50;;;6.13;;
64799;SDS011;51233;51.982;4.594;2023-07-31T03:26:20;20.60;;;6.73;;
64799;SDS011;51233;51.982;4.594;2023-07-31T03:29:20;19.23;;;5.47;;
64799;SDS011;51233;51.982;4.594;2023-07-31T03:32:20;13.87;;;4.93;;
64799;SDS011;51233;51.982;4.594;2023-07-31T03:35:21;24.40;;;6.77;;
64799;SDS011;51233;51.982;4.594;2023-07-31T03:38:21;11.80;;;4.27;;
64799;SDS011;51233;51.982;4.594;2023-07-31T03:41:21;16.47;;;5.87;;
64799;SDS011;51233;51.982;4.594;2023-07-31T03:44:21;20.57;;;6.23;;
64799;SDS011;51233;51.982;4.594;2023-07-31T03:47:22;20.30;;;6.33;;
64799;SDS011;51233;51.982;4.594;2023-07-31T03:50:22;17.03;;;5.67;;
64799;SDS011;51233;51.982;4.594;2023-07-31T03:53:22;14.40;;;5.87;;
64799;SDS011;51233;51.982;4.594;2023-07-31T03:56:22;13.73;;;5.70;;
64799;SDS011;51233;51.982;4.594;2023-07-31T03:59:23;12.90;;;5.73;;
64799;SDS011;51233;51.982;4.594;2023-07-31T04:02:23;15.40;;;5.67;;
64799;SDS011;51233;51.982;4.594;2023-07-31T04:05:23;11.47;;;5.00;;
64799;SDS011;51233;51.982;4.594;2023-07-31T04:08:26;12.38;;;5.78;;
64799;SDS011;51233;51.982;4.594;2023-07-31T04:11:26;10.30;;;5.00;;
64799;SDS011;51233;51.982;4.594;2023-07-31T04:14:26;12.50;;;5.20;;
64799;SDS011;51233;51.982;4.594;2023-07-31T04:17:27;9.50;;;4.13;;
64799;SDS011;51233;51.982;4.594;2023-07-31T04:20:27;9.07;;;4.70;;
64799;SDS011;51233;51.982;4.594;2023-07-31T04:23:27;7.33;;;3.90;;
64799;SDS011;51233;51.982;4.594;2023-07-31T04:26:28;7.10;;;3.80;;
64799;SDS011;51233;51.982;4.594;2023-07-31T04:29:28;9.93;;;3.80;;
64799;SDS011;51233;51.982;4.594;2023-07-31T04:32:28;5.17;;;3.10;;
64799;SDS011;51233;51.982;4.594;2023-07-31T04:35:29;6.20;;;3.15;;
64799;SDS011;51233;51.982;4.594;2023-07-31T04:38:29;3.40;;;2.60;;
64799;SDS011;51233;51.982;4.594;2023-07-31T04:41:30;3.77;;;2.50;;
64799;SDS011;51233;51.982;4.594;2023-07-31T04:44:30;4.37;;;2.83;;
64799;SDS011;51233;51.982;4.594;2023-07-31T04:47:30;5.37;;;2.83;;
64799;SDS011;51233;51.982;4.594;2023-07-31T04:50:30;5.87;;;3.13;;
64799;SDS011;51233;51.982;4.594;2023-07-31T04:53:31;4.77;;;2.93;;
64799;SDS011;51233;51.982;4.594;2023-07-31T04:56:31;4.20;;;3.00;;
64799;SDS011;51233;51.982;4.594;2023-07-31T04:59:31;3.63;;;3.13;;
64799;SDS011;51233;51.982;4.594;2023-07-31T05:02:31;6.73;;;3.30;;
64799;SDS011;51233;51.982;4.594;2023-07-31T05:05:31;5.72;;;3.22;;
64799;SDS011;51233;51.982;4.594;2023-07-31T05:08:32;6.07;;;3.03;;
64799;SDS011;51233;51.982;4.594;2023-07-31T05:11:33;4.93;;;2.85;;
64799;SDS011;51233;51.982;4.594;2023-07-31T05:14:33;6.07;;;3.37;;
64799;SDS011;51233;51.982;4.594;2023-07-31T05:17:33;6.63;;;3.47;;
64799;SDS011;51233;51.982;4.594;2023-07-31T05:20:34;6.53;;;2.90;;
64799;SDS011;51233;51.982;4.594;2023-07-31T05:23:34;4.30;;;2.40;;
64799;SDS011;51233;51.982;4.594;2023-07-31T05:26:34;4.37;;;2.67;;
64799;SDS011;51233;51.982;4.594;2023-07-31T05:29:35;4.30;;;2.40;;
64799;SDS011;51233;51.982;4.594;2023-07-31T05:32:35;3.93;;;2.40;;
64799;SDS011;51233;51.982;4.594;2023-07-31T05:35:35;5.23;;;2.60;;
64799;SDS011;51233;51.982;4.594;2023-07-31T05:38:35;5.45;;;2.33;;
64799;SDS011;51233;51.982;4.594;2023-07-31T05:41:36;4.90;;;2.50;;
64799;SDS011;51233;51.982;4.594;2023-07-31T05:44:36;3.70;;;2.10;;
64799;SDS011;51233;51.982;4.594;2023-07-31T05:47:36;3.40;;;2.33;;
64799;SDS011;51233;51.982;4.594;2023-07-31T05:50:36;2.07;;;1.87;;
64799;SDS011;51233;51.982;4.594;2023-07-31T05:53:39;2.72;;;2.10;;
64799;SDS011;51233;51.982;4.594;2023-07-31T05:56:40;3.78;;;2.20;;
64799;SDS011;51233;51.982;4.594;2023-07-31T05:59:40;2.37;;;1.80;;
64799;SDS011;51233;51.982;4.594;2023-07-31T06:02:41;3.67;;;1.90;;
64799;SDS011;51233;51.982;4.594;2023-07-31T06:05:41;3.97;;;2.30;;
64799;SDS011;51233;51.982;4.594;2023-07-31T06:08:41;3.33;;;2.20;;
64799;SDS011;51233;51.982;4.594;2023-07-31T06:11:41;2.77;;;1.93;;
64799;SDS011;51233;51.982;4.594;2023-07-31T06:14:42;4.43;;;2.20;;
64799;SDS011;51233;51.982;4.594;2023-07-31T06:17:42;2.53;;;2.10;;
64799;SDS011;51233;51.982;4.594;2023-07-31T06:20:42;3.10;;;2.00;;
64799;SDS011;51233;51.982;4.594;2023-07-31T06:23:43;2.77;;;1.77;;
64799;SDS011;51233;51.982;4.594;2023-07-31T06:26:43;2.45;;;1.67;;
64799;SDS011;51233;51.982;4.594;2023-07-31T06:29:43;1.83;;;1.63;;
64799;SDS011;51233;51.982;4.594;2023-07-31T06:32:43;2.17;;;1.50;;
64799;SDS011;51233;51.982;4.594;2023-07-31T06:35:44;4.00;;;1.57;;
64799;SDS011;51233;51.982;4.594;2023-07-31T06:38:45;1.88;;;1.55;;
64799;SDS011;51233;51.982;4.594;2023-07-31T06:41:45;2.43;;;1.80;;
64799;SDS011;51233;51.982;4.594;2023-07-31T06:44:49;1.73;;;1.47;;
64799;SDS011;51233;51.982;4.594;2023-07-31T06:47:49;1.58;;;1.48;;
64799;SDS011;51233;51.982;4.594;2023-07-31T06:50:50;1.60;;;1.50;;
64799;SDS011;51233;51.982;4.594;2023-07-31T06:53:50;2.60;;;1.07;;
64799;SDS011;51233;51.982;4.594;2023-07-31T06:56:50;1.60;;;1.37;;
64799;SDS011;51233;51.982;4.594;2023-07-31T06:59:50;1.50;;;1.30;;
64799;SDS011;51233;51.982;4.594;2023-07-31T07:02:50;1.30;;;1.20;;
64799;SDS011;51233;51.982;4.594;2023-07-31T07:05:51;1.83;;;1.17;;
64799;SDS011;51233;51.982;4.594;2023-07-31T07:08:51;1.80;;;1.20;;
64799;SDS011;51233;51.982;4.594;2023-07-31T07:11:51;1.47;;;1.37;;
64799;SDS011;51233;51.982;4.594;2023-07-31T07:14:51;1.20;;;1.10;;
64799;SDS011;51233;51.982;4.594;2023-07-31T07:17:59;1.13;;;1.05;;
64799;SDS011;51233;51.982;4.594;2023-07-31T07:20:59;1.20;;;1.10;;
64799;SDS011;51233;51.982;4.594;2023-07-31T07:24:01;1.05;;;1.02;;
64799;SDS011;51233;51.982;4.594;2023-07-31T07:27:02;1.23;;;1.00;;
64799;SDS011;51233;51.982;4.594;2023-07-31T07:30:05;1.92;;;1.27;;
64799;SDS011;51233;51.982;4.594;2023-07-31T07:33:05;1.03;;;0.93;;
64799;SDS011;51233;51.982;4.594;2023-07-31T07:36:05;1.23;;;1.00;;
64799;SDS011;51233;51.982;4.594;2023-07-31T07:39:10;1.50;;;1.05;;
64799;SDS011;51233;51.982;4.594;2023-07-31T07:42:10;1.10;;;0.87;;
64799;SDS011;51233;51.982;4.594;2023-07-31T07:45:13;0.60;;;0.60;;
64799;SDS011;51233;51.982;4.594;2023-07-31T07:48:13;1.02;;;0.85;;
64799;SDS011;51233;51.982;4.594;2023-07-31T07:51:13;0.87;;;0.83;;
64799;SDS011;51233;51.982;4.594;2023-07-31T07:54:13;0.90;;;0.70;;
64799;SDS011;51233;51.982;4.594;2023-07-31T07:57:14;0.70;;;0.70;;
64799;SDS011;51233;51.982;4.594;2023-07-31T08:00:14;0.73;;;0.60;;
64799;SDS011;51233;51.982;4.594;2023-07-31T08:03:17;0.70;;;0.70;;
64799;SDS011;51233;51.982;4.594;2023-07-31T08:06:17;0.60;;;0.60;;
64799;SDS011;51233;51.982;4.594;2023-07-31T08:09:17;1.30;;;0.67;;
64799;SDS011;51233;51.982;4.594;2023-07-31T08:12:18;0.50;;;0.50;;
64799;SDS011;51233;51.982;4.594;2023-07-31T08:15:18;0.70;;;0.60;;
64799;SDS011;51233;51.982;4.594;2023-07-31T08:18:19;1.07;;;0.67;;
64799;SDS011;51233;51.982;4.594;2023-07-31T08:21:19;0.50;;;0.50;;
64799;SDS011;51233;51.982;4.594;2023-07-31T08:24:19;0.97;;;0.80;;
64799;SDS011;51233;51.982;4.594;2023-07-31T08:27:19;1.70;;;0.57;;
64799;SDS011;51233;51.982;4.594;2023-07-31T08:30:20;0.90;;;0.50;;
64799;SDS011;51233;51.982;4.594;2023-07-31T08:33:20;1.60;;;0.50;;
64799;SDS011;51233;51.982;4.594;2023-07-31T08:36:23;0.60;;;0.60;;
64799;SDS011;51233;51.982;4.594;2023-07-31T08:39:24;0.50;;;0.50;;
64799;SDS011;51233;51.982;4.594;2023-07-31T08:42:24;1.50;;;0.60;;
64799;SDS011;51233;51.982;4.594;2023-07-31T08:45:26;0.50;;;0.50;;
64799;SDS011;51233;51.982;4.594;2023-07-31T08:48:27;0.70;;;0.60;;
64799;SDS011;51233;51.982;4.594;2023-07-31T08:51:31;0.85;;;0.70;;
64799;SDS011;51233;51.982;4.594;2023-07-31T08:54:39;1.33;;;0.50;;
64799;SDS011;51233;51.982;4.594;2023-07-31T08:57:43;0.63;;;0.53;;
64799;SDS011;51233;51.982;4.594;2023-07-31T09:00:43;0.80;;;0.80;;
64799;SDS011;51233;51.982;4.594;2023-07-31T09:06:45;1.27;;;0.80;;
64799;SDS011;51233;51.982;4.594;2023-07-31T09:09:46;0.67;;;0.67;;
64799;SDS011;51233;51.982;4.594;2023-07-31T09:12:46;0.80;;;0.80;;
64799;SDS011;51233;51.982;4.594;2023-07-31T09:15:46;0.90;;;0.80;;
64799;SDS011;51233;51.982;4.594;2023-07-31T09:18:56;1.87;;;1.30;;
64799;SDS011;51233;51.982;4.594;2023-07-31T09:21:56;1.75;;;1.00;;
64799;SDS011;51233;51.982;4.594;2023-07-31T09:24:57;3.23;;;1.30;;
64799;SDS011;51233;51.982;4.594;2023-07-31T09:28:04;1.00;;;0.90;;
64799;SDS011;51233;51.982;4.594;2023-07-31T09:31:05;1.25;;;1.00;;
64799;SDS011;51233;51.982;4.594;2023-07-31T09:34:05;1.42;;;1.08;;
64799;SDS011;51233;51.982;4.594;2023-07-31T09:37:05;1.55;;;1.05;;
64799;SDS011;51233;51.982;4.594;2023-07-31T09:40:05;0.90;;;0.90;;
64799;SDS011;51233;51.982;4.594;2023-07-31T09:43:13;1.98;;;1.00;;
64799;SDS011;51233;51.982;4.594;2023-07-31T09:46:13;1.20;;;1.10;;
64799;SDS011;51233;51.982;4.594;2023-07-31T09:49:14;1.60;;;1.10;;
64799;SDS011;51233;51.982;4.594;2023-07-31T09:52:15;1.70;;;1.20;;
64799;SDS011;51233;51.982;4.594;2023-07-31T09:55:15;2.07;;;1.47;;
64799;SDS011;51233;51.982;4.594;2023-07-31T09:58:15;1.00;;;0.90;;
64799;SDS011;51233;51.982;4.594;2023-07-31T10:01:15;2.97;;;1.20;;
64799;SDS011;51233;51.982;4.594;2023-07-31T10:04:16;1.23;;;1.13;;
64799;SDS011;51233;51.982;4.594;2023-07-31T10:07:19;3.55;;;1.40;;
64799;SDS011;51233;51.982;4.594;2023-07-31T10:10:20;1.48;;;1.20;;
64799;SDS011;51233;51.982;4.594;2023-07-31T10:13:21;1.70;;;1.10;;
64799;SDS011;51233;51.982;4.594;2023-07-31T10:16:22;2.13;;;1.30;;
64799;SDS011;51233;51.982;4.594;2023-07-31T10:19:22;2.03;;;1.20;;
64799;SDS011;51233;51.982;4.594;2023-07-31T10:22:23;2.33;;;1.47;;
64799;SDS011;51233;51.982;4.594;2023-07-31T10:25:23;1.23;;;0.93;;
64799;SDS011;51233;51.982;4.594;2023-07-31T10:28:24;1.57;;;1.20;;
64799;SDS011;51233;51.982;4.594;2023-07-31T10:31:25;3.73;;;1.70;;
64799;SDS011;51233;51.982;4.594;2023-07-31T10:34:25;5.70;;;1.97;;
64799;SDS011;51233;51.982;4.594;2023-07-31T10:40:27;3.67;;;2.20;;
64799;SDS011;51233;51.982;4.594;2023-07-31T10:43:30;9.57;;;2.43;;
64799;SDS011;51233;51.982;4.594;2023-07-31T10:46:32;6.00;;;2.25;;
64799;SDS011;51233;51.982;4.594;2023-07-31T10:49:32;7.60;;;2.40;;
64799;SDS011;51233;51.982;4.594;2023-07-31T10:52:33;3.80;;;1.35;;
64799;SDS011;51233;51.982;4.594;2023-07-31T10:55:40;7.22;;;2.63;;
64799;SDS011;51233;51.982;4.594;2023-07-31T10:58:43;8.20;;;2.28;;
64799;SDS011;51233;51.982;4.594;2023-07-31T11:01:50;10.75;;;2.35;;
64799;SDS011;51233;51.982;4.594;2023-07-31T11:05:11;6.75;;;2.15;;
64799;SDS011;51233;51.982;4.594;2023-07-31T11:08:14;6.63;;;2.25;;
64799;SDS011;51233;51.982;4.594;2023-07-31T11:11:19;5.97;;;2.53;;
64799;SDS011;51233;51.982;4.594;2023-07-31T11:14:20;5.28;;;2.20;;
64799;SDS011;51233;51.982;4.594;2023-07-31T11:17:20;4.90;;;2.40;;
64799;SDS011;51233;51.982;4.594;2023-07-31T11:20:28;5.10;;;1.92;;
64799;SDS011;51233;51.982;4.594;2023-07-31T11:23:29;6.20;;;2.40;;
64799;SDS011;51233;51.982;4.594;2023-07-31T11:26:29;5.60;;;2.50;;
64799;SDS011;51233;51.982;4.594;2023-07-31T11:29:32;4.13;;;2.30;;
64799;SDS011;51233;51.982;4.594;2023-07-31T11:32:32;3.67;;;1.93;;
64799;SDS011;51233;51.982;4.594;2023-07-31T11:35:33;5.75;;;2.45;;
64799;SDS011;51233;51.982;4.594;2023-07-31T11:38:33;4.53;;;2.10;;
64799;SDS011;51233;51.982;4.594;2023-07-31T11:41:34;10.43;;;2.37;;
64799;SDS011;51233;51.982;4.594;2023-07-31T11:44:39;6.97;;;2.20;;
64799;SDS011;51233;51.982;4.594;2023-07-31T11:47:41;8.38;;;2.40;;
64799;SDS011;51233;51.982;4.594;2023-07-31T11:50:41;3.60;;;2.07;;
64799;SDS011;51233;51.982;4.594;2023-07-31T11:53:49;4.75;;;2.42;;
64799;SDS011;51233;51.982;4.594;2023-07-31T11:56:51;8.02;;;2.58;;
64799;SDS011;51233;51.982;4.594;2023-07-31T11:59:51;3.33;;;2.23;;
64799;SDS011;51233;51.982;4.594;2023-07-31T12:02:51;3.40;;;1.90;;
64799;SDS011;51233;51.982;4.594;2023-07-31T12:05:53;6.07;;;2.20;;
64799;SDS011;51233;51.982;4.594;2023-07-31T12:08:53;5.60;;;2.07;;
64799;SDS011;51233;51.982;4.594;2023-07-31T12:12:00;7.03;;;2.60;;
64799;SDS011;51233;51.982;4.594;2023-07-31T12:15:00;3.55;;;2.13;;
64799;SDS011;51233;51.982;4.594;2023-07-31T12:18:03;4.37;;;2.23;;
64799;SDS011;51233;51.982;4.594;2023-07-31T12:21:04;3.55;;;1.90;;
64799;SDS011;51233;51.982;4.594;2023-07-31T12:24:05;3.58;;;1.73;;
64799;SDS011;51233;51.982;4.594;2023-07-31T12:27:10;3.80;;;2.13;;
64799;SDS011;51233;51.982;4.594;2023-07-31T12:30:32;5.53;;;2.08;;
64799;SDS011;51233;51.982;4.594;2023-07-31T12:33:35;4.77;;;2.20;;
64799;SDS011;51233;51.982;4.594;2023-07-31T12:36:38;3.70;;;1.90;;
64799;SDS011;51233;51.982;4.594;2023-07-31T12:39:39;1.83;;;1.30;;
64799;SDS011;51233;51.982;4.594;2023-07-31T12:42:40;2.63;;;1.73;;
64799;SDS011;51233;51.982;4.594;2023-07-31T12:45:41;2.33;;;1.65;;
64799;SDS011;51233;51.982;4.594;2023-07-31T12:48:41;2.77;;;1.70;;
64799;SDS011;51233;51.982;4.594;2023-07-31T12:51:44;4.95;;;2.22;;
64799;SDS011;51233;51.982;4.594;2023-07-31T12:54:44;2.63;;;1.30;;
64799;SDS011;51233;51.982;4.594;2023-07-31T12:57:44;6.20;;;1.83;;
64799;SDS011;51233;51.982;4.594;2023-07-31T13:00:44;2.27;;;1.20;;
64799;SDS011;51233;51.982;4.594;2023-07-31T13:03:45;1.50;;;1.20;;
64799;SDS011;51233;51.982;4.594;2023-07-31T13:06:45;2.13;;;1.20;;
64799;SDS011;51233;51.982;4.594;2023-07-31T13:09:45;2.37;;;1.40;;
64799;SDS011;51233;51.982;4.594;2023-07-31T13:12:45;4.13;;;1.40;;
64799;SDS011;51233;51.982;4.594;2023-07-31T13:15:46;1.63;;;1.10;;
64799;SDS011;51233;51.982;4.594;2023-07-31T13:18:46;1.10;;;1.00;;
64799;SDS011;51233;51.982;4.594;2023-07-31T13:21:46;2.00;;;1.00;;
64799;SDS011;51233;51.982;4.594;2023-07-31T13:24:46;1.27;;;1.10;;
64799;SDS011;51233;51.982;4.594;2023-07-31T13:27:47;1.33;;;1.02;;
64799;SDS011;51233;51.982;4.594;2023-07-31T13:30:47;0.93;;;0.93;;
64799;SDS011;51233;51.982;4.594;2023-07-31T13:33:48;1.30;;;0.90;;
64799;SDS011;51233;51.982;4.594;2023-07-31T13:36:48;1.93;;;1.20;;
64799;SDS011;51233;51.982;4.594;2023-07-31T13:39:48;0.80;;;0.80;;
64799;SDS011;51233;51.982;4.594;2023-07-31T13:42:51;1.00;;;0.90;;
64799;SDS011;51233;51.982;4.594;2023-07-31T13:45:52;0.60;;;0.60;;
64799;SDS011;51233;51.982;4.594;2023-07-31T13:48:52;0.80;;;0.70;;
64799;SDS011;51233;51.982;4.594;2023-07-31T13:51:56;0.80;;;0.60;;
64799;SDS011;51233;51.982;4.594;2023-07-31T13:54:56;1.27;;;0.60;;
64799;SDS011;51233;51.982;4.594;2023-07-31T13:57:56;0.50;;;0.50;;
64799;SDS011;51233;51.982;4.594;2023-07-31T14:00:57;0.60;;;0.60;;
64799;SDS011;51233;51.982;4.594;2023-07-31T14:03:57;0.73;;;0.73;;
64799;SDS011;51233;51.982;4.594;2023-07-31T14:06:57;3.20;;;0.70;;
64799;SDS011;51233;51.982;4.594;2023-07-31T14:09:57;0.60;;;0.60;;
64799;SDS011;51233;51.982;4.594;2023-07-31T14:12:57;0.40;;;0.40;;
64799;SDS011;51233;51.982;4.594;2023-07-31T14:15:58;0.60;;;0.60;;
64799;SDS011;51233;51.982;4.594;2023-07-31T14:18:58;0.70;;;0.70;;
64799;SDS011;51233;51.982;4.594;2023-07-31T14:21:59;0.60;;;0.60;;
64799;SDS011;51233;51.982;4.594;2023-07-31T14:24:59;1.42;;;0.50;;
64799;SDS011;51233;51.982;4.594;2023-07-31T14:28:00;0.50;;;0.50;;
64799;SDS011;51233;51.982;4.594;2023-07-31T14:31:03;0.60;;;0.60;;
64799;SDS011;51233;51.982;4.594;2023-07-31T14:34:03;0.77;;;0.77;;
64799;SDS011;51233;51.982;4.594;2023-07-31T14:37:03;0.80;;;0.70;;
64799;SDS011;51233;51.982;4.594;2023-07-31T14:40:04;0.97;;;0.53;;
64799;SDS011;51233;51.982;4.594;2023-07-31T14:43:04;0.80;;;0.80;;
64799;SDS011;51233;51.982;4.594;2023-07-31T14:46:05;1.10;;;0.80;;
64799;SDS011;51233;51.982;4.594;2023-07-31T14:49:08;0.70;;;0.70;;
64799;SDS011;51233;51.982;4.594;2023-07-31T14:52:08;1.50;;;0.88;;
64799;SDS011;51233;51.982;4.594;2023-07-31T14:55:08;1.43;;;0.80;;
64799;SDS011;51233;51.982;4.594;2023-07-31T14:58:11;0.80;;;0.80;;
64799;SDS011;51233;51.982;4.594;2023-07-31T15:01:13;0.80;;;0.80;;
64799;SDS011;51233;51.982;4.594;2023-07-31T15:04:16;1.07;;;0.90;;
64799;SDS011;51233;51.982;4.594;2023-07-31T15:07:17;0.73;;;0.73;;
64799;SDS011;51233;51.982;4.594;2023-07-31T15:10:17;0.70;;;0.70;;
64799;SDS011;51233;51.982;4.594;2023-07-31T15:13:17;0.83;;;0.80;;
64799;SDS011;51233;51.982;4.594;2023-07-31T15:16:17;1.05;;;0.88;;
64799;SDS011;51233;51.982;4.594;2023-07-31T15:19:17;1.40;;;0.90;;
64799;SDS011;51233;51.982;4.594;2023-07-31T15:22:18;0.70;;;0.70;;
64799;SDS011;51233;51.982;4.594;2023-07-31T15:25:18;0.87;;;0.67;;
64799;SDS011;51233;51.982;4.594;2023-07-31T15:28:18;0.57;;;0.57;;
64799;SDS011;51233;51.982;4.594;2023-07-31T15:31:21;1.15;;;0.70;;
64799;SDS011;51233;51.982;4.594;2023-07-31T15:34:22;1.03;;;0.80;;
64799;SDS011;51233;51.982;4.594;2023-07-31T15:37:22;1.53;;;0.80;;
64799;SDS011;51233;51.982;4.594;2023-07-31T15:40:22;1.07;;;0.90;;
64799;SDS011;51233;51.982;4.594;2023-07-31T15:43:23;0.97;;;0.80;;
64799;SDS011;51233;51.982;4.594;2023-07-31T15:46:26;1.80;;;0.70;;
64799;SDS011;51233;51.982;4.594;2023-07-31T15:49:26;0.83;;;0.60;;
64799;SDS011;51233;51.982;4.594;2023-07-31T15:52:26;0.95;;;0.60;;
64799;SDS011;51233;51.982;4.594;2023-07-31T15:55:27;1.03;;;0.80;;
64799;SDS011;51233;51.982;4.594;2023-07-31T15:58:27;1.17;;;0.80;;
64799;SDS011;51233;51.982;4.594;2023-07-31T16:01:27;0.90;;;0.80;;
64799;SDS011;51233;51.982;4.594;2023-07-31T16:04:28;0.77;;;0.60;;
64799;SDS011;51233;51.982;4.594;2023-07-31T16:07:28;0.73;;;0.73;;
64799;SDS011;51233;51.982;4.594;2023-07-31T16:10:28;1.07;;;0.70;;
64799;SDS011;51233;51.982;4.594;2023-07-31T16:13:28;1.10;;;0.67;;
64799;SDS011;51233;51.982;4.594;2023-07-31T16:16:29;1.93;;;0.90;;
64799;SDS011;51233;51.982;4.594;2023-07-31T16:19:29;0.60;;;0.60;;
64799;SDS011;51233;51.982;4.594;2023-07-31T16:22:29;0.55;;;0.55;;
64799;SDS011;51233;51.982;4.594;2023-07-31T16:25:29;0.80;;;0.60;;
64799;SDS011;51233;51.982;4.594;2023-07-31T16:28:29;0.43;;;0.43;;
64799;SDS011;51233;51.982;4.594;2023-07-31T16:31:30;0.70;;;0.70;;
64799;SDS011;51233;51.982;4.594;2023-07-31T16:34:31;0.60;;;0.60;;
64799;SDS011;51233;51.982;4.594;2023-07-31T16:40:32;2.58;;;0.80;;
64799;SDS011;51233;51.982;4.594;2023-07-31T16:43:32;1.67;;;0.90;;
64799;SDS011;51233;51.982;4.594;2023-07-31T16:46:32;1.50;;;0.70;;
64799;SDS011;51233;51.982;4.594;2023-07-31T16:49:33;1.50;;;1.00;;
64799;SDS011;51233;51.982;4.594;2023-07-31T16:52:33;2.53;;;1.17;;
64799;SDS011;51233;51.982;4.594;2023-07-31T16:55:33;3.60;;;1.53;;
64799;SDS011;51233;51.982;4.594;2023-07-31T16:58:34;1.97;;;1.00;;
64799;SDS011;51233;51.982;4.594;2023-07-31T17:01:34;1.40;;;0.97;;
64799;SDS011;51233;51.982;4.594;2023-07-31T17:04:34;3.47;;;1.07;;
64799;SDS011;51233;51.982;4.594;2023-07-31T17:07:34;2.50;;;1.23;;
64799;SDS011;51233;51.982;4.594;2023-07-31T17:10:34;1.77;;;0.70;;
64799;SDS011;51233;51.982;4.594;2023-07-31T17:13:35;4.53;;;1.57;;
64799;SDS011;51233;51.982;4.594;2023-07-31T17:16:35;3.17;;;1.48;;
64799;SDS011;51233;51.982;4.594;2023-07-31T17:19:35;4.07;;;1.47;;
64799;SDS011;51233;51.982;4.594;2023-07-31T17:22:36;5.60;;;1.60;;
64799;SDS011;51233;51.982;4.594;2023-07-31T17:25:37;3.70;;;1.50;;
64799;SDS011;51233;51.982;4.594;2023-07-31T17:28:38;4.75;;;1.65;;
64799;SDS011;51233;51.982;4.594;2023-07-31T17:31:38;3.90;;;1.52;;
64799;SDS011;51233;51.982;4.594;2023-07-31T17:34:41;5.22;;;2.10;;
64799;SDS011;51233;51.982;4.594;2023-07-31T17:37:43;3.05;;;1.40;;
64799;SDS011;51233;51.982;4.594;2023-07-31T17:40:43;2.90;;;1.43;;
64799;SDS011;51233;51.982;4.594;2023-07-31T17:43:43;4.07;;;1.50;;
64799;SDS011;51233;51.982;4.594;2023-07-31T17:46:45;2.92;;;1.42;;
64799;SDS011;51233;51.982;4.594;2023-07-31T17:49:47;7.65;;;1.83;;
64799;SDS011;51233;51.982;4.594;2023-07-31T17:52:47;6.30;;;1.53;;
64799;SDS011;51233;51.982;4.594;2023-07-31T17:55:47;7.43;;;2.07;;
64799;SDS011;51233;51.982;4.594;2023-07-31T17:58:48;5.40;;;1.90;;
64799;SDS011;51233;51.982;4.594;2023-07-31T18:01:48;6.40;;;1.90;;
64799;SDS011;51233;51.982;4.594;2023-07-31T18:04:48;4.03;;;1.50;;
64799;SDS011;51233;51.982;4.594;2023-07-31T18:07:48;6.03;;;1.80;;
64799;SDS011;51233;51.982;4.594;2023-07-31T18:10:49;5.23;;;2.07;;
64799;SDS011;51233;51.982;4.594;2023-07-31T18:13:49;4.73;;;1.50;;
64799;SDS011;51233;51.982;4.594;2023-07-31T18:16:49;6.37;;;2.00;;
64799;SDS011;51233;51.982;4.594;2023-07-31T18:19:49;3.73;;;1.57;;
64799;SDS011;51233;51.982;4.594;2023-07-31T18:22:50;5.53;;;1.97;;
64799;SDS011;51233;51.982;4.594;2023-07-31T18:25:50;5.83;;;1.67;;